sensor_id;sensor_type;location;lat;lon;timestamp;P1;durP1;ratioP1;P2;durP2;ratioP2
21591;SDS011;10958;50.892;3.992;2022-12-10T00:01:32;66.57;;;24.83;;
21591;SDS011;10958;50.892;3.992;2022-12-10T00:03:59;72.88;;;25.48;;
21591;SDS011;10958;50.892;3.992;2022-12-10T00:06:30;74.28;;;25.92;;
21591;SDS011;10958;50.892;3.992;2022-12-10T00:09:01;79.05;;;26.17;;
21591;SDS011;10958;50.892;3.992;2022-12-10T00:11:28;83.18;;;27.13;;
21591;SDS011;10958;50.892;3.992;2022-12-10T00:13:54;80.22;;;25.77;;
21591;SDS011;10958;50.892;3.992;2022-12-10T00:16:21;82.90;;;27.23;;
21591;SDS011;10958;50.892;3.992;2022-12-10T00:18:49;75.10;;;26.98;;
21591;SDS011;10958;50.892;3.992;2022-12-10T00:21:19;91.78;;;25.65;;
21591;SDS011;10958;50.892;3.992;2022-12-10T00:23:48;78.95;;;26.98;;
21591;SDS011;10958;50.892;3.992;2022-12-10T00:26:16;76.03;;;27.35;;
21591;SDS011;10958;50.892;3.992;2022-12-10T00:28:44;85.82;;;28.15;;
21591;SDS011;10958;50.892;3.992;2022-12-10T00:31:12;93.45;;;26.90;;
21591;SDS011;10958;50.892;3.992;2022-12-10T00:33:41;84.63;;;27.42;;
21591;SDS011;10958;50.892;3.992;2022-12-10T00:36:15;83.57;;;28.58;;
21591;SDS011;10958;50.892;3.992;2022-12-10T00:38:43;81.85;;;28.55;;
21591;SDS011;10958;50.892;3.992;2022-12-10T00:41:09;80.07;;;27.58;;
21591;SDS011;10958;50.892;3.992;2022-12-10T00:43:36;86.80;;;27.65;;
21591;SDS011;10958;50.892;3.992;2022-12-10T00:46:05;84.43;;;28.48;;
21591;SDS011;10958;50.892;3.992;2022-12-10T00:48:31;94.03;;;27.63;;
21591;SDS011;10958;50.892;3.992;2022-12-10T00:50:59;91.10;;;25.85;;
21591;SDS011;10958;50.892;3.992;2022-12-10T00:53:26;82.88;;;25.65;;
21591;SDS011;10958;50.892;3.992;2022-12-10T00:55:53;91.32;;;27.88;;
21591;SDS011;10958;50.892;3.992;2022-12-10T00:58:19;73.53;;;26.98;;
21591;SDS011;10958;50.892;3.992;2022-12-10T01:00:47;78.95;;;27.38;;
21591;SDS011;10958;50.892;3.992;2022-12-10T01:03:13;85.82;;;27.70;;
21591;SDS011;10958;50.892;3.992;2022-12-10T01:05:40;89.22;;;27.88;;
21591;SDS011;10958;50.892;3.992;2022-12-10T01:08:07;83.35;;;26.27;;
21591;SDS011;10958;50.892;3.992;2022-12-10T01:10:34;105.45;;;27.35;;
21591;SDS011;10958;50.892;3.992;2022-12-10T01:13:01;80.65;;;27.70;;
21591;SDS011;10958;50.892;3.992;2022-12-10T01:15:26;88.47;;;25.92;;
21591;SDS011;10958;50.892;3.992;2022-12-10T01:17:52;86.30;;;27.15;;
21591;SDS011;10958;50.892;3.992;2022-12-10T01:20:19;79.50;;;23.67;;
21591;SDS011;10958;50.892;3.992;2022-12-10T01:22:45;83.55;;;24.48;;
21591;SDS011;10958;50.892;3.992;2022-12-10T01:25:11;88.68;;;24.42;;
21591;SDS011;10958;50.892;3.992;2022-12-10T01:27:37;70.15;;;23.15;;
21591;SDS011;10958;50.892;3.992;2022-12-10T01:30:03;86.85;;;23.40;;
21591;SDS011;10958;50.892;3.992;2022-12-10T01:32:29;89.35;;;24.77;;
21591;SDS011;10958;50.892;3.992;2022-12-10T01:34:55;100.40;;;25.50;;
21591;SDS011;10958;50.892;3.992;2022-12-10T01:37:22;122.32;;;25.35;;
21591;SDS011;10958;50.892;3.992;2022-12-10T01:39:50;86.85;;;25.23;;
21591;SDS011;10958;50.892;3.992;2022-12-10T01:42:19;92.32;;;25.90;;
21591;SDS011;10958;50.892;3.992;2022-12-10T01:47:14;93.25;;;25.70;;
21591;SDS011;10958;50.892;3.992;2022-12-10T01:49:40;98.47;;;23.65;;
21591;SDS011;10958;50.892;3.992;2022-12-10T01:52:07;102.88;;;23.70;;
21591;SDS011;10958;50.892;3.992;2022-12-10T01:54:37;98.43;;;25.07;;
21591;SDS011;10958;50.892;3.992;2022-12-10T01:57:07;102.15;;;26.48;;
21591;SDS011;10958;50.892;3.992;2022-12-10T01:59:36;102.43;;;27.05;;
21591;SDS011;10958;50.892;3.992;2022-12-10T02:02:07;100.18;;;26.13;;
21591;SDS011;10958;50.892;3.992;2022-12-10T02:04:57;79.75;;;19.27;;
21591;SDS011;10958;50.892;3.992;2022-12-10T02:10:43;86.82;;;26.55;;
21591;SDS011;10958;50.892;3.992;2022-12-10T02:16:06;93.30;;;25.05;;
21591;SDS011;10958;50.892;3.992;2022-12-10T02:21:51;96.72;;;26.35;;
21591;SDS011;10958;50.892;3.992;2022-12-10T02:24:21;84.75;;;26.30;;
21591;SDS011;10958;50.892;3.992;2022-12-10T02:26:56;96.13;;;26.65;;
21591;SDS011;10958;50.892;3.992;2022-12-10T02:29:31;95.47;;;26.63;;
21591;SDS011;10958;50.892;3.992;2022-12-10T02:32:07;96.07;;;28.83;;
21591;SDS011;10958;50.892;3.992;2022-12-10T02:34:39;73.93;;;20.60;;
21591;SDS011;10958;50.892;3.992;2022-12-10T02:37:10;107.15;;;27.20;;
21591;SDS011;10958;50.892;3.992;2022-12-10T02:39:46;86.75;;;27.45;;
21591;SDS011;10958;50.892;3.992;2022-12-10T02:42:18;85.50;;;27.75;;
21591;SDS011;10958;50.892;3.992;2022-12-10T02:44:46;88.95;;;27.05;;
21591;SDS011;10958;50.892;3.992;2022-12-10T02:47:15;91.47;;;28.83;;
21591;SDS011;10958;50.892;3.992;2022-12-10T02:49:43;97.32;;;29.27;;
21591;SDS011;10958;50.892;3.992;2022-12-10T02:52:13;98.05;;;28.27;;
21591;SDS011;10958;50.892;3.992;2022-12-10T02:54:41;99.82;;;29.25;;
21591;SDS011;10958;50.892;3.992;2022-12-10T02:59:47;104.30;;;28.45;;
21591;SDS011;10958;50.892;3.992;2022-12-10T03:02:28;97.80;;;28.83;;
21591;SDS011;10958;50.892;3.992;2022-12-10T03:05:01;107.20;;;30.77;;
21591;SDS011;10958;50.892;3.992;2022-12-10T03:07:37;95.80;;;30.55;;
21591;SDS011;10958;50.892;3.992;2022-12-10T03:12:41;106.95;;;32.25;;
21591;SDS011;10958;50.892;3.992;2022-12-10T03:15:10;115.03;;;32.92;;
21591;SDS011;10958;50.892;3.992;2022-12-10T03:17:38;119.88;;;30.02;;
21591;SDS011;10958;50.892;3.992;2022-12-10T03:20:07;111.22;;;31.58;;
21591;SDS011;10958;50.892;3.992;2022-12-10T03:25:03;105.75;;;31.30;;
21591;SDS011;10958;50.892;3.992;2022-12-10T03:27:30;104.60;;;31.60;;
21591;SDS011;10958;50.892;3.992;2022-12-10T03:29:57;111.00;;;31.42;;
21591;SDS011;10958;50.892;3.992;2022-12-10T03:32:26;121.57;;;31.17;;
21591;SDS011;10958;50.892;3.992;2022-12-10T03:34:54;127.60;;;31.23;;
21591;SDS011;10958;50.892;3.992;2022-12-10T03:37:23;115.32;;;30.83;;
21591;SDS011;10958;50.892;3.992;2022-12-10T03:39:51;146.38;;;31.85;;
21591;SDS011;10958;50.892;3.992;2022-12-10T03:42:17;138.77;;;32.75;;
21591;SDS011;10958;50.892;3.992;2022-12-10T03:44:43;100.65;;;31.60;;
21591;SDS011;10958;50.892;3.992;2022-12-10T03:47:11;114.97;;;32.05;;
21591;SDS011;10958;50.892;3.992;2022-12-10T03:49:39;105.68;;;33.53;;
21591;SDS011;10958;50.892;3.992;2022-12-10T03:52:06;109.18;;;32.85;;
21591;SDS011;10958;50.892;3.992;2022-12-10T03:54:32;119.13;;;31.08;;
21591;SDS011;10958;50.892;3.992;2022-12-10T03:56:58;98.35;;;30.58;;
21591;SDS011;10958;50.892;3.992;2022-12-10T03:59:24;126.18;;;30.10;;
21591;SDS011;10958;50.892;3.992;2022-12-10T04:01:50;123.38;;;30.55;;
21591;SDS011;10958;50.892;3.992;2022-12-10T04:04:16;119.28;;;30.17;;
21591;SDS011;10958;50.892;3.992;2022-12-10T04:06:42;116.53;;;29.30;;
21591;SDS011;10958;50.892;3.992;2022-12-10T04:09:12;120.93;;;29.55;;
21591;SDS011;10958;50.892;3.992;2022-12-10T04:11:39;132.98;;;31.10;;
21591;SDS011;10958;50.892;3.992;2022-12-10T04:14:05;119.68;;;30.35;;
21591;SDS011;10958;50.892;3.992;2022-12-10T04:16:51;101.60;;;27.67;;
21591;SDS011;10958;50.892;3.992;2022-12-10T04:19:17;124.95;;;27.33;;
21591;SDS011;10958;50.892;3.992;2022-12-10T04:21:44;111.63;;;28.35;;
21591;SDS011;10958;50.892;3.992;2022-12-10T04:24:30;116.47;;;28.55;;
21591;SDS011;10958;50.892;3.992;2022-12-10T04:27:21;105.93;;;29.65;;
21591;SDS011;10958;50.892;3.992;2022-12-10T04:29:58;118.55;;;29.38;;
21591;SDS011;10958;50.892;3.992;2022-12-10T04:32:26;139.20;;;30.90;;
21591;SDS011;10958;50.892;3.992;2022-12-10T04:34:54;94.30;;;21.25;;
21591;SDS011;10958;50.892;3.992;2022-12-10T04:37:21;116.88;;;27.85;;
21591;SDS011;10958;50.892;3.992;2022-12-10T04:39:52;95.83;;;23.83;;
21591;SDS011;10958;50.892;3.992;2022-12-10T04:42:21;126.15;;;29.48;;
21591;SDS011;10958;50.892;3.992;2022-12-10T04:47:16;115.28;;;29.30;;
21591;SDS011;10958;50.892;3.992;2022-12-10T04:49:42;120.03;;;29.00;;
21591;SDS011;10958;50.892;3.992;2022-12-10T04:52:08;144.02;;;26.65;;
21591;SDS011;10958;50.892;3.992;2022-12-10T04:54:37;170.93;;;21.02;;
21591;SDS011;10958;50.892;3.992;2022-12-10T04:57:03;142.88;;;27.40;;
21591;SDS011;10958;50.892;3.992;2022-12-10T04:59:29;144.25;;;27.27;;
21591;SDS011;10958;50.892;3.992;2022-12-10T05:01:56;167.95;;;27.98;;
21591;SDS011;10958;50.892;3.992;2022-12-10T05:04:22;164.05;;;29.38;;
21591;SDS011;10958;50.892;3.992;2022-12-10T05:06:48;134.20;;;26.35;;
21591;SDS011;10958;50.892;3.992;2022-12-10T05:09:14;145.75;;;23.90;;
21591;SDS011;10958;50.892;3.992;2022-12-10T05:11:41;146.88;;;26.45;;
21591;SDS011;10958;50.892;3.992;2022-12-10T05:14:10;83.30;;;18.37;;
21591;SDS011;10958;50.892;3.992;2022-12-10T05:16:37;151.38;;;22.58;;
21591;SDS011;10958;50.892;3.992;2022-12-10T05:19:03;147.55;;;23.17;;
21591;SDS011;10958;50.892;3.992;2022-12-10T05:21:29;121.68;;;25.55;;
21591;SDS011;10958;50.892;3.992;2022-12-10T05:24:15;102.10;;;24.35;;
21591;SDS011;10958;50.892;3.992;2022-12-10T05:26:41;119.50;;;23.25;;
21591;SDS011;10958;50.892;3.992;2022-12-10T05:29:08;125.70;;;26.02;;
21591;SDS011;10958;50.892;3.992;2022-12-10T05:31:37;133.20;;;24.80;;
21591;SDS011;10958;50.892;3.992;2022-12-10T05:34:03;131.57;;;25.92;;
21591;SDS011;10958;50.892;3.992;2022-12-10T05:36:30;183.45;;;28.08;;
21591;SDS011;10958;50.892;3.992;2022-12-10T05:38:59;144.90;;;26.40;;
21591;SDS011;10958;50.892;3.992;2022-12-10T05:41:26;169.25;;;28.08;;
21591;SDS011;10958;50.892;3.992;2022-12-10T05:43:54;128.38;;;28.30;;
21591;SDS011;10958;50.892;3.992;2022-12-10T05:46:22;143.00;;;27.63;;
21591;SDS011;10958;50.892;3.992;2022-12-10T05:48:50;116.15;;;24.88;;
21591;SDS011;10958;50.892;3.992;2022-12-10T05:51:20;130.57;;;23.38;;
21591;SDS011;10958;50.892;3.992;2022-12-10T05:53:51;112.03;;;24.23;;
21591;SDS011;10958;50.892;3.992;2022-12-10T05:56:18;107.85;;;23.27;;
21591;SDS011;10958;50.892;3.992;2022-12-10T05:58:47;116.35;;;23.20;;
21591;SDS011;10958;50.892;3.992;2022-12-10T06:01:16;110.57;;;22.67;;
21591;SDS011;10958;50.892;3.992;2022-12-10T06:03:46;105.47;;;23.50;;
21591;SDS011;10958;50.892;3.992;2022-12-10T06:06:12;116.95;;;24.70;;
21591;SDS011;10958;50.892;3.992;2022-12-10T06:08:39;121.32;;;28.23;;
21591;SDS011;10958;50.892;3.992;2022-12-10T06:11:07;125.68;;;24.33;;
21591;SDS011;10958;50.892;3.992;2022-12-10T06:13:34;115.10;;;22.63;;
21591;SDS011;10958;50.892;3.992;2022-12-10T06:16:07;100.97;;;22.75;;
21591;SDS011;10958;50.892;3.992;2022-12-10T06:18:38;102.97;;;24.80;;
21591;SDS011;10958;50.892;3.992;2022-12-10T06:21:09;104.43;;;23.73;;
21591;SDS011;10958;50.892;3.992;2022-12-10T06:26:04;110.53;;;23.75;;
21591;SDS011;10958;50.892;3.992;2022-12-10T06:28:31;144.25;;;24.00;;
21591;SDS011;10958;50.892;3.992;2022-12-10T06:30:58;123.13;;;23.25;;
21591;SDS011;10958;50.892;3.992;2022-12-10T06:33:24;116.82;;;24.38;;
21591;SDS011;10958;50.892;3.992;2022-12-10T06:35:51;135.05;;;28.35;;
21591;SDS011;10958;50.892;3.992;2022-12-10T06:38:17;110.63;;;24.00;;
21591;SDS011;10958;50.892;3.992;2022-12-10T06:40:44;110.00;;;22.60;;
21591;SDS011;10958;50.892;3.992;2022-12-10T06:43:10;125.55;;;23.15;;
21591;SDS011;10958;50.892;3.992;2022-12-10T06:45:39;97.47;;;20.45;;
21591;SDS011;10958;50.892;3.992;2022-12-10T06:48:06;90.47;;;20.63;;
21591;SDS011;10958;50.892;3.992;2022-12-10T06:50:33;81.63;;;20.15;;
21591;SDS011;10958;50.892;3.992;2022-12-10T06:52:59;94.32;;;20.02;;
21591;SDS011;10958;50.892;3.992;2022-12-10T06:55:25;86.53;;;18.85;;
21591;SDS011;10958;50.892;3.992;2022-12-10T06:57:51;83.50;;;19.05;;
21591;SDS011;10958;50.892;3.992;2022-12-10T07:00:19;80.35;;;18.65;;
21591;SDS011;10958;50.892;3.992;2022-12-10T07:02:45;83.10;;;19.73;;
21591;SDS011;10958;50.892;3.992;2022-12-10T07:05:12;94.22;;;19.13;;
21591;SDS011;10958;50.892;3.992;2022-12-10T07:07:38;95.45;;;19.02;;
21591;SDS011;10958;50.892;3.992;2022-12-10T07:10:05;101.35;;;20.63;;
21591;SDS011;10958;50.892;3.992;2022-12-10T07:12:31;101.25;;;25.00;;
21591;SDS011;10958;50.892;3.992;2022-12-10T07:14:58;76.53;;;19.80;;
21591;SDS011;10958;50.892;3.992;2022-12-10T07:17:24;104.47;;;24.13;;
21591;SDS011;10958;50.892;3.992;2022-12-10T07:19:50;126.75;;;20.33;;
21591;SDS011;10958;50.892;3.992;2022-12-10T07:22:16;107.50;;;19.42;;
21591;SDS011;10958;50.892;3.992;2022-12-10T07:24:42;92.60;;;20.70;;
21591;SDS011;10958;50.892;3.992;2022-12-10T07:27:12;96.65;;;19.95;;
21591;SDS011;10958;50.892;3.992;2022-12-10T07:29:38;75.90;;;19.58;;
21591;SDS011;10958;50.892;3.992;2022-12-10T07:32:04;74.95;;;18.45;;
21591;SDS011;10958;50.892;3.992;2022-12-10T07:34:31;103.22;;;18.52;;
21591;SDS011;10958;50.892;3.992;2022-12-10T07:36:57;69.78;;;18.40;;
21591;SDS011;10958;50.892;3.992;2022-12-10T07:39:23;87.78;;;19.50;;
21591;SDS011;10958;50.892;3.992;2022-12-10T07:41:50;85.72;;;21.50;;
21591;SDS011;10958;50.892;3.992;2022-12-10T07:44:17;101.80;;;20.15;;
21591;SDS011;10958;50.892;3.992;2022-12-10T07:46:48;72.95;;;19.98;;
21591;SDS011;10958;50.892;3.992;2022-12-10T07:49:15;116.63;;;18.13;;
21591;SDS011;10958;50.892;3.992;2022-12-10T07:51:45;95.80;;;17.98;;
21591;SDS011;10958;50.892;3.992;2022-12-10T07:54:16;71.90;;;18.67;;
21591;SDS011;10958;50.892;3.992;2022-12-10T07:56:43;81.10;;;19.42;;
21591;SDS011;10958;50.892;3.992;2022-12-10T07:59:09;65.93;;;18.67;;
21591;SDS011;10958;50.892;3.992;2022-12-10T08:01:36;84.75;;;20.33;;
21591;SDS011;10958;50.892;3.992;2022-12-10T08:04:02;81.63;;;19.75;;
21591;SDS011;10958;50.892;3.992;2022-12-10T08:06:28;88.53;;;20.02;;
21591;SDS011;10958;50.892;3.992;2022-12-10T08:08:57;104.03;;;18.80;;
21591;SDS011;10958;50.892;3.992;2022-12-10T08:11:24;90.10;;;19.25;;
21591;SDS011;10958;50.892;3.992;2022-12-10T08:13:54;124.28;;;25.63;;
21591;SDS011;10958;50.892;3.992;2022-12-10T08:16:24;96.57;;;19.48;;
21591;SDS011;10958;50.892;3.992;2022-12-10T08:18:51;84.20;;;18.92;;
21591;SDS011;10958;50.892;3.992;2022-12-10T08:21:19;90.93;;;19.98;;
21591;SDS011;10958;50.892;3.992;2022-12-10T08:23:46;86.38;;;19.05;;
21591;SDS011;10958;50.892;3.992;2022-12-10T08:26:14;127.25;;;20.50;;
21591;SDS011;10958;50.892;3.992;2022-12-10T08:28:48;106.72;;;20.23;;
21591;SDS011;10958;50.892;3.992;2022-12-10T08:31:15;95.70;;;21.73;;
21591;SDS011;10958;50.892;3.992;2022-12-10T08:33:42;134.90;;;19.83;;
21591;SDS011;10958;50.892;3.992;2022-12-10T08:36:08;114.82;;;21.55;;
21591;SDS011;10958;50.892;3.992;2022-12-10T08:38:37;88.18;;;19.63;;
21591;SDS011;10958;50.892;3.992;2022-12-10T08:44:02;111.78;;;20.75;;
21591;SDS011;10958;50.892;3.992;2022-12-10T08:46:28;96.72;;;22.75;;
21591;SDS011;10958;50.892;3.992;2022-12-10T08:48:54;88.20;;;20.42;;
21591;SDS011;10958;50.892;3.992;2022-12-10T08:51:20;113.47;;;21.33;;
21591;SDS011;10958;50.892;3.992;2022-12-10T08:53:46;114.10;;;22.17;;
21591;SDS011;10958;50.892;3.992;2022-12-10T08:56:13;117.85;;;22.08;;
21591;SDS011;10958;50.892;3.992;2022-12-10T08:58:40;97.32;;;23.77;;
21591;SDS011;10958;50.892;3.992;2022-12-10T09:01:07;114.78;;;23.73;;
21591;SDS011;10958;50.892;3.992;2022-12-10T09:03:34;122.30;;;25.90;;
21591;SDS011;10958;50.892;3.992;2022-12-10T09:06:02;100.60;;;20.90;;
21591;SDS011;10958;50.892;3.992;2022-12-10T09:08:31;130.52;;;25.95;;
21591;SDS011;10958;50.892;3.992;2022-12-10T09:11:00;128.85;;;26.95;;
21591;SDS011;10958;50.892;3.992;2022-12-10T09:13:30;108.78;;;24.95;;
21591;SDS011;10958;50.892;3.992;2022-12-10T09:15:56;124.80;;;25.70;;
21591;SDS011;10958;50.892;3.992;2022-12-10T09:18:22;131.30;;;26.95;;
21591;SDS011;10958;50.892;3.992;2022-12-10T09:20:48;117.05;;;22.10;;
21591;SDS011;10958;50.892;3.992;2022-12-10T09:23:14;110.80;;;23.52;;
21591;SDS011;10958;50.892;3.992;2022-12-10T09:25:40;120.68;;;22.13;;
21591;SDS011;10958;50.892;3.992;2022-12-10T09:28:09;120.60;;;23.98;;
21591;SDS011;10958;50.892;3.992;2022-12-10T09:30:35;118.65;;;24.17;;
21591;SDS011;10958;50.892;3.992;2022-12-10T09:33:00;110.88;;;23.92;;
21591;SDS011;10958;50.892;3.992;2022-12-10T09:35:26;111.82;;;24.35;;
21591;SDS011;10958;50.892;3.992;2022-12-10T09:37:52;115.63;;;24.35;;
21591;SDS011;10958;50.892;3.992;2022-12-10T09:40:21;124.93;;;26.95;;
21591;SDS011;10958;50.892;3.992;2022-12-10T09:51:41;111.20;;;23.02;;
21591;SDS011;10958;50.892;3.992;2022-12-10T09:54:41;100.78;;;24.52;;
21591;SDS011;10958;50.892;3.992;2022-12-10T09:57:10;108.90;;;25.92;;
21591;SDS011;10958;50.892;3.992;2022-12-10T09:59:50;103.18;;;23.10;;
21591;SDS011;10958;50.892;3.992;2022-12-10T10:02:21;116.35;;;21.92;;
21591;SDS011;10958;50.892;3.992;2022-12-10T10:04:50;117.82;;;22.10;;
21591;SDS011;10958;50.892;3.992;2022-12-10T10:09:50;103.65;;;23.05;;
21591;SDS011;10958;50.892;3.992;2022-12-10T10:12:21;118.47;;;21.60;;
21591;SDS011;10958;50.892;3.992;2022-12-10T10:14:47;111.53;;;24.42;;
21591;SDS011;10958;50.892;3.992;2022-12-10T10:17:16;102.22;;;21.67;;
21591;SDS011;10958;50.892;3.992;2022-12-10T10:19:51;100.65;;;21.63;;
21591;SDS011;10958;50.892;3.992;2022-12-10T10:25:56;92.90;;;21.80;;
21591;SDS011;10958;50.892;3.992;2022-12-10T10:28:22;84.13;;;22.15;;
21591;SDS011;10958;50.892;3.992;2022-12-10T10:30:48;102.40;;;21.02;;
21591;SDS011;10958;50.892;3.992;2022-12-10T10:33:16;95.97;;;21.30;;
21591;SDS011;10958;50.892;3.992;2022-12-10T10:35:43;103.93;;;23.60;;
21591;SDS011;10958;50.892;3.992;2022-12-10T10:38:14;89.13;;;22.40;;
21591;SDS011;10958;50.892;3.992;2022-12-10T10:40:52;90.45;;;21.40;;
21591;SDS011;10958;50.892;3.992;2022-12-10T10:43:32;111.45;;;20.73;;
21591;SDS011;10958;50.892;3.992;2022-12-10T10:46:09;87.32;;;20.90;;
21591;SDS011;10958;50.892;3.992;2022-12-10T10:48:38;93.93;;;20.25;;
21591;SDS011;10958;50.892;3.992;2022-12-10T10:53:49;79.05;;;18.58;;
21591;SDS011;10958;50.892;3.992;2022-12-10T10:56:30;89.07;;;20.92;;
21591;SDS011;10958;50.892;3.992;2022-12-10T10:59:19;89.43;;;20.63;;
21591;SDS011;10958;50.892;3.992;2022-12-10T11:03:37;74.68;;;19.65;;
21591;SDS011;10958;50.892;3.992;2022-12-10T11:06:15;93.28;;;21.58;;
21591;SDS011;10958;50.892;3.992;2022-12-10T11:08:43;79.30;;;20.40;;
21591;SDS011;10958;50.892;3.992;2022-12-10T11:11:14;82.45;;;20.35;;
21591;SDS011;10958;50.892;3.992;2022-12-10T11:14:29;92.45;;;22.77;;
21591;SDS011;10958;50.892;3.992;2022-12-10T11:17:30;83.30;;;20.60;;
21591;SDS011;10958;50.892;3.992;2022-12-10T11:22:38;79.68;;;20.50;;
21591;SDS011;10958;50.892;3.992;2022-12-10T11:46:27;79.93;;;21.27;;
21591;SDS011;10958;50.892;3.992;2022-12-10T12:14:19;80.05;;;21.08;;
21591;SDS011;10958;50.892;3.992;2022-12-10T12:36:03;78.03;;;19.33;;
21591;SDS011;10958;50.892;3.992;2022-12-10T12:45:14;66.53;;;20.50;;
21591;SDS011;10958;50.892;3.992;2022-12-10T12:48:32;65.68;;;17.95;;
21591;SDS011;10958;50.892;3.992;2022-12-10T12:51:02;70.18;;;21.10;;
21591;SDS011;10958;50.892;3.992;2022-12-10T12:53:46;73.38;;;19.95;;
21591;SDS011;10958;50.892;3.992;2022-12-10T13:08:53;72.43;;;20.50;;
21591;SDS011;10958;50.892;3.992;2022-12-10T13:21:16;71.35;;;21.67;;
21591;SDS011;10958;50.892;3.992;2022-12-10T13:24:08;68.70;;;20.05;;
21591;SDS011;10958;50.892;3.992;2022-12-10T13:36:07;73.32;;;20.13;;
21591;SDS011;10958;50.892;3.992;2022-12-10T13:38:38;71.20;;;20.50;;
21591;SDS011;10958;50.892;3.992;2022-12-10T13:44:47;77.40;;;19.98;;
21591;SDS011;10958;50.892;3.992;2022-12-10T13:47:55;74.28;;;19.90;;
21591;SDS011;10958;50.892;3.992;2022-12-10T14:11:43;71.38;;;21.92;;
21591;SDS011;10958;50.892;3.992;2022-12-10T14:14:26;68.80;;;22.33;;
21591;SDS011;10958;50.892;3.992;2022-12-10T14:17:15;77.72;;;23.30;;
21591;SDS011;10958;50.892;3.992;2022-12-10T14:19:55;61.13;;;19.90;;
21591;SDS011;10958;50.892;3.992;2022-12-10T14:25:57;67.45;;;20.25;;
21591;SDS011;10958;50.892;3.992;2022-12-10T14:29:20;64.75;;;20.48;;
21591;SDS011;10958;50.892;3.992;2022-12-10T14:38:18;67.40;;;24.48;;
21591;SDS011;10958;50.892;3.992;2022-12-10T14:41:26;75.90;;;26.40;;
21591;SDS011;10958;50.892;3.992;2022-12-10T14:44:01;69.63;;;25.98;;
21591;SDS011;10958;50.892;3.992;2022-12-10T14:46:46;64.75;;;22.85;;
21591;SDS011;10958;50.892;3.992;2022-12-10T14:49:24;60.60;;;19.85;;
21591;SDS011;10958;50.892;3.992;2022-12-10T14:51:56;55.33;;;20.85;;
21591;SDS011;10958;50.892;3.992;2022-12-10T15:00:20;53.85;;;19.95;;
21591;SDS011;10958;50.892;3.992;2022-12-10T15:03:01;56.45;;;20.60;;
21591;SDS011;10958;50.892;3.992;2022-12-10T15:06:07;57.45;;;19.88;;
21591;SDS011;10958;50.892;3.992;2022-12-10T15:14:38;33.63;;;12.50;;
21591;SDS011;10958;50.892;3.992;2022-12-10T15:33:01;43.30;;;17.77;;
21591;SDS011;10958;50.892;3.992;2022-12-10T15:35:48;45.65;;;19.00;;
21591;SDS011;10958;50.892;3.992;2022-12-10T15:59:00;47.35;;;19.08;;
21591;SDS011;10958;50.892;3.992;2022-12-10T16:01:33;59.42;;;24.80;;
21591;SDS011;10958;50.892;3.992;2022-12-10T16:04:20;55.38;;;22.75;;
21591;SDS011;10958;50.892;3.992;2022-12-10T16:09:45;52.15;;;21.20;;
21591;SDS011;10958;50.892;3.992;2022-12-10T16:12:30;52.25;;;21.75;;
21591;SDS011;10958;50.892;3.992;2022-12-10T16:21:28;50.80;;;20.05;;
21591;SDS011;10958;50.892;3.992;2022-12-10T16:24:00;45.70;;;20.98;;
21591;SDS011;10958;50.892;3.992;2022-12-10T16:26:57;47.30;;;20.58;;
21591;SDS011;10958;50.892;3.992;2022-12-10T16:29:23;51.70;;;20.55;;
21591;SDS011;10958;50.892;3.992;2022-12-10T16:31:52;45.17;;;18.67;;
21591;SDS011;10958;50.892;3.992;2022-12-10T16:34:29;49.97;;;21.05;;
21591;SDS011;10958;50.892;3.992;2022-12-10T16:39:50;41.65;;;18.85;;
21591;SDS011;10958;50.892;3.992;2022-12-10T16:50:01;39.08;;;18.13;;
21591;SDS011;10958;50.892;3.992;2022-12-10T16:52:43;38.95;;;18.17;;
21591;SDS011;10958;50.892;3.992;2022-12-10T16:55:15;42.78;;;18.50;;
21591;SDS011;10958;50.892;3.992;2022-12-10T16:57:45;39.85;;;18.55;;
21591;SDS011;10958;50.892;3.992;2022-12-10T17:00:13;45.70;;;20.13;;
21591;SDS011;10958;50.892;3.992;2022-12-10T17:02:57;38.72;;;18.75;;
21591;SDS011;10958;50.892;3.992;2022-12-10T17:09:01;46.30;;;20.25;;
21591;SDS011;10958;50.892;3.992;2022-12-10T17:48:27;37.58;;;19.65;;
21591;SDS011;10958;50.892;3.992;2022-12-10T17:51:05;41.85;;;20.75;;
21591;SDS011;10958;50.892;3.992;2022-12-10T17:56:25;36.95;;;18.75;;
21591;SDS011;10958;50.892;3.992;2022-12-10T17:59:11;37.72;;;19.42;;
21591;SDS011;10958;50.892;3.992;2022-12-10T18:16:25;33.65;;;15.95;;
21591;SDS011;10958;50.892;3.992;2022-12-10T19:42:20;42.17;;;18.45;;
21591;SDS011;10958;50.892;3.992;2022-12-10T19:44:47;24.42;;;12.88;;
21591;SDS011;10958;50.892;3.992;2022-12-10T19:47:26;33.70;;;18.65;;
21591;SDS011;10958;50.892;3.992;2022-12-10T19:50:57;42.92;;;18.13;;
21591;SDS011;10958;50.892;3.992;2022-12-10T19:52:58;32.63;;;15.55;;
21591;SDS011;10958;50.892;3.992;2022-12-10T20:02:21;34.10;;;15.35;;
21591;SDS011;10958;50.892;3.992;2022-12-10T20:04:56;33.50;;;16.30;;
21591;SDS011;10958;50.892;3.992;2022-12-10T20:07:31;29.55;;;16.48;;
21591;SDS011;10958;50.892;3.992;2022-12-10T20:10:27;28.90;;;15.85;;
21591;SDS011;10958;50.892;3.992;2022-12-10T20:13:15;28.35;;;15.10;;
21591;SDS011;10958;50.892;3.992;2022-12-10T20:16:22;31.25;;;15.20;;
21591;SDS011;10958;50.892;3.992;2022-12-10T20:19:27;25.20;;;13.77;;
21591;SDS011;10958;50.892;3.992;2022-12-10T20:21:53;32.60;;;14.55;;
21591;SDS011;10958;50.892;3.992;2022-12-10T20:24:58;31.38;;;14.95;;
21591;SDS011;10958;50.892;3.992;2022-12-10T20:27:40;28.88;;;15.45;;
21591;SDS011;10958;50.892;3.992;2022-12-10T20:30:14;27.48;;;15.68;;
21591;SDS011;10958;50.892;3.992;2022-12-10T20:32:53;30.52;;;15.43;;
21591;SDS011;10958;50.892;3.992;2022-12-10T20:35:27;30.27;;;15.45;;
21591;SDS011;10958;50.892;3.992;2022-12-10T20:38:02;28.73;;;15.50;;
21591;SDS011;10958;50.892;3.992;2022-12-10T20:40:55;29.65;;;15.98;;
21591;SDS011;10958;50.892;3.992;2022-12-10T20:43:21;26.38;;;14.75;;
21591;SDS011;10958;50.892;3.992;2022-12-10T20:46:07;26.90;;;14.65;;
21591;SDS011;10958;50.892;3.992;2022-12-10T20:51:39;26.63;;;14.27;;
21591;SDS011;10958;50.892;3.992;2022-12-10T20:54:30;27.00;;;14.50;;
21591;SDS011;10958;50.892;3.992;2022-12-10T20:57:01;24.73;;;13.95;;
21591;SDS011;10958;50.892;3.992;2022-12-10T20:59:42;27.17;;;14.98;;
21591;SDS011;10958;50.892;3.992;2022-12-10T21:05:09;27.70;;;15.05;;
21591;SDS011;10958;50.892;3.992;2022-12-10T21:07:37;25.08;;;14.15;;
21591;SDS011;10958;50.892;3.992;2022-12-10T21:10:16;30.63;;;15.02;;
21591;SDS011;10958;50.892;3.992;2022-12-10T21:13:05;25.90;;;14.10;;
21591;SDS011;10958;50.892;3.992;2022-12-10T21:15:44;26.55;;;13.43;;
21591;SDS011;10958;50.892;3.992;2022-12-10T21:21:15;25.48;;;13.90;;
21591;SDS011;10958;50.892;3.992;2022-12-10T21:24:05;45.40;;;20.58;;
21591;SDS011;10958;50.892;3.992;2022-12-10T21:26:44;27.08;;;14.75;;
21591;SDS011;10958;50.892;3.992;2022-12-10T21:29:23;25.65;;;13.70;;
21591;SDS011;10958;50.892;3.992;2022-12-10T21:31:50;26.38;;;14.65;;
21591;SDS011;10958;50.892;3.992;2022-12-10T21:34:52;24.85;;;13.43;;
21591;SDS011;10958;50.892;3.992;2022-12-10T21:37:18;26.45;;;14.00;;